createdAt,value
2023-05-21T00:01:25.836Z,20.38
2023-05-21T00:03:52.808Z,20.36
2023-05-21T00:06:21.026Z,20.32
2023-05-21T00:08:48.015Z,20.34
2023-05-21T00:11:15.138Z,20.31
2023-05-21T00:13:41.974Z,20.32
2023-05-21T00:16:11.207Z,20.35
2023-05-21T00:18:39.486Z,20.33
2023-05-21T00:21:06.815Z,20.32
2023-05-21T00:23:34.166Z,20.27
2023-05-21T00:26:01.350Z,20.29
2023-05-21T00:28:28.208Z,20.28
2023-05-21T00:30:55.583Z,20.28
2023-05-21T00:33:22.585Z,20.24
2023-05-21T00:35:49.696Z,20.26
2023-05-21T00:38:18.597Z,20.20
2023-05-21T00:40:45.831Z,20.14
2023-05-21T00:43:14.407Z,20.16
2023-05-21T00:45:44.506Z,20.07
2023-05-21T00:48:11.362Z,20.06
2023-05-21T00:50:39.815Z,20.10
2023-05-21T00:53:09.726Z,20.14
2023-05-21T00:55:38.150Z,20.04
2023-05-21T00:58:05.426Z,20.03
2023-05-21T01:00:33.785Z,20.10
2023-05-21T01:03:01.224Z,19.99
2023-05-21T01:05:28.967Z,19.97
2023-05-21T01:07:56.000Z,20.03
2023-05-21T01:10:23.097Z,19.96
2023-05-21T01:12:49.886Z,19.87
2023-05-21T01:15:17.020Z,19.97
2023-05-21T01:17:46.082Z,19.97
2023-05-21T01:20:13.288Z,19.94
2023-05-21T01:22:54.667Z,19.91
2023-05-21T01:25:25.202Z,19.88
2023-05-21T01:27:52.275Z,19.78
2023-05-21T01:30:19.992Z,19.83
2023-05-21T01:32:58.603Z,19.80
2023-05-21T01:35:27.999Z,19.81
2023-05-21T01:37:57.807Z,19.76
2023-05-21T01:40:24.892Z,19.75
2023-05-21T01:42:51.635Z,19.69
2023-05-21T01:45:19.093Z,19.62
2023-05-21T01:47:48.324Z,19.54
2023-05-21T01:50:16.241Z,19.53
2023-05-21T01:52:51.412Z,19.51
2023-05-21T01:55:19.540Z,19.51
2023-05-21T01:57:46.352Z,19.42
2023-05-21T02:00:13.666Z,19.46
2023-05-21T02:02:40.483Z,19.37
2023-05-21T02:05:08.792Z,19.37
2023-05-21T02:07:35.527Z,19.42
2023-05-21T02:10:02.609Z,19.42
2023-05-21T02:12:29.553Z,19.38
2023-05-21T02:14:57.632Z,19.36
2023-05-21T02:17:24.598Z,19.33
2023-05-21T02:19:51.884Z,19.30
2023-05-21T02:22:18.611Z,19.42
2023-05-21T02:24:45.654Z,19.27
2023-05-21T02:27:13.438Z,19.27
2023-05-21T02:29:40.505Z,19.29
2023-05-21T02:32:07.674Z,19.28
2023-05-21T02:34:37.312Z,19.23
2023-05-21T02:37:04.126Z,19.17
2023-05-21T02:39:31.181Z,19.12
2023-05-21T02:41:57.930Z,19.01
2023-05-21T02:44:24.970Z,19.17
2023-05-21T02:46:51.757Z,19.18
2023-05-21T02:49:18.811Z,19.12
2023-05-21T02:51:45.752Z,19.10
2023-05-21T02:54:13.005Z,19.15
2023-05-21T02:56:39.775Z,19.16
2023-05-21T02:59:07.025Z,19.16
2023-05-21T03:01:33.841Z,19.14
2023-05-21T03:04:01.045Z,19.08
2023-05-21T03:06:27.812Z,19.06
2023-05-21T03:08:54.850Z,19.07
2023-05-21T03:11:22.594Z,19.06
2023-05-21T03:13:49.691Z,19.00
2023-05-21T03:16:17.669Z,19.04
2023-05-21T03:18:45.142Z,18.99
2023-05-21T03:21:15.489Z,19.01
2023-05-21T03:23:42.665Z,18.97
2023-05-21T03:26:09.522Z,18.94
2023-05-21T03:28:36.531Z,18.95
2023-05-21T03:31:03.354Z,18.94
2023-05-21T03:33:30.501Z,18.91
2023-05-21T03:35:57.271Z,18.87
2023-05-21T03:38:24.309Z,18.82
2023-05-21T03:40:51.104Z,18.82
2023-05-21T03:43:18.123Z,18.84
2023-05-21T03:45:45.032Z,18.83
2023-05-21T03:48:12.179Z,18.76
2023-05-21T03:50:38.941Z,18.69
2023-05-21T03:53:06.006Z,18.71
2023-05-21T03:55:32.742Z,18.77
2023-05-21T03:57:59.810Z,18.64
2023-05-21T04:00:26.567Z,18.63
2023-05-21T04:02:54.478Z,18.72
2023-05-21T04:05:21.262Z,18.76
2023-05-21T04:07:48.555Z,18.75
2023-05-21T04:10:15.351Z,18.80
2023-05-21T04:12:42.477Z,18.78
2023-05-21T04:15:09.559Z,18.80
2023-05-21T04:17:36.691Z,18.83
2023-05-21T04:20:04.402Z,18.83
2023-05-21T04:22:31.470Z,18.79
2023-05-21T04:24:59.659Z,18.84
2023-05-21T04:27:26.719Z,18.87
2023-05-21T04:29:54.786Z,18.91
2023-05-21T04:32:22.234Z,18.90
2023-05-21T04:34:48.968Z,18.94
2023-05-21T04:37:18.926Z,18.93
2023-05-21T04:39:46.887Z,18.90
2023-05-21T04:42:14.219Z,19.00
2023-05-21T04:44:41.241Z,18.97
2023-05-21T04:47:08.450Z,18.94
2023-05-21T04:49:35.292Z,19.01
2023-05-21T04:52:02.564Z,19.18
2023-05-21T04:54:29.367Z,19.23
2023-05-21T04:56:56.478Z,19.24
2023-05-21T04:59:23.485Z,19.28
2023-05-21T05:01:50.592Z,19.25
2023-05-21T05:04:17.392Z,19.28
2023-05-21T05:06:44.428Z,19.35
2023-05-21T05:09:11.294Z,19.39
2023-05-21T05:11:38.327Z,19.45
2023-05-21T05:14:05.118Z,19.46
2023-05-21T05:16:32.338Z,19.52
2023-05-21T05:18:59.260Z,19.58
2023-05-21T05:21:26.383Z,19.68
2023-05-21T05:23:53.151Z,19.69
2023-05-21T05:26:21.646Z,19.77
2023-05-21T05:28:48.468Z,19.79
2023-05-21T05:31:15.889Z,19.86
2023-05-21T05:33:42.747Z,19.94
2023-05-21T05:36:09.912Z,20.00
2023-05-21T05:38:36.655Z,20.06
2023-05-21T05:41:03.771Z,20.12
2023-05-21T05:43:30.805Z,20.16
2023-05-21T05:45:57.879Z,20.23
2023-05-21T05:48:24.644Z,20.25
2023-05-21T05:50:54.760Z,20.29
2023-05-21T05:53:21.559Z,20.32
2023-05-21T05:55:48.727Z,20.36
2023-05-21T05:58:15.749Z,20.42
2023-05-21T06:00:42.866Z,20.47
2023-05-21T06:03:09.740Z,20.51
2023-05-21T06:05:37.087Z,20.55
2023-05-21T06:08:04.083Z,20.58
2023-05-21T06:10:31.280Z,20.67
2023-05-21T06:12:58.030Z,20.70
2023-05-21T06:15:25.097Z,20.78
2023-05-21T06:17:51.856Z,20.83
2023-05-21T06:20:18.983Z,20.92
2023-05-21T06:22:45.746Z,20.89
2023-05-21T06:25:14.623Z,20.96
2023-05-21T06:27:41.460Z,21.01
2023-05-21T06:30:08.852Z,21.10
2023-05-21T06:32:35.786Z,21.15
2023-05-21T06:35:02.973Z,21.21
2023-05-21T06:37:29.710Z,21.25
2023-05-21T06:39:56.809Z,21.32
2023-05-21T06:42:23.526Z,21.38
2023-05-21T06:44:50.727Z,21.43
2023-05-21T06:47:17.435Z,21.48
2023-05-21T06:49:44.457Z,21.56
2023-05-21T06:52:11.396Z,21.69
2023-05-21T06:54:38.503Z,21.71
2023-05-21T06:57:05.537Z,21.78
2023-05-21T06:59:32.697Z,21.84
2023-05-21T07:01:59.975Z,21.94
2023-05-21T07:04:27.673Z,22.02
2023-05-21T07:06:54.621Z,22.11
2023-05-21T07:09:21.738Z,22.18
2023-05-21T07:11:48.566Z,22.27
2023-05-21T07:14:15.691Z,22.33
2023-05-21T07:16:42.537Z,22.37
2023-05-21T07:19:09.700Z,22.42
2023-05-21T07:21:36.509Z,22.53
2023-05-21T07:24:03.707Z,22.60
2023-05-21T07:26:30.617Z,22.67
2023-05-21T07:28:57.672Z,22.76
2023-05-21T07:31:25.382Z,22.85
2023-05-21T07:33:52.688Z,22.90
2023-05-21T07:36:19.431Z,22.95
2023-05-21T07:38:46.570Z,23.04
2023-05-21T07:41:13.369Z,23.14
2023-05-21T07:43:40.429Z,23.20
2023-05-21T07:46:07.238Z,23.25
2023-05-21T07:48:35.532Z,23.39
2023-05-21T07:51:03.921Z,23.46
2023-05-21T07:53:32.422Z,23.51
2023-05-21T07:56:02.256Z,23.62
2023-05-21T07:58:29.460Z,23.70
2023-05-21T08:00:57.323Z,23.77
2023-05-21T08:03:26.504Z,23.87
2023-05-21T08:05:53.433Z,23.93
2023-05-21T08:08:22.125Z,24.02
2023-05-21T08:10:49.082Z,24.12
2023-05-21T08:13:16.508Z,24.16
2023-05-21T08:15:43.388Z,24.21
2023-05-21T08:18:10.581Z,24.27
2023-05-21T08:20:37.516Z,24.36
2023-05-21T08:23:04.908Z,24.43
2023-05-21T08:25:31.761Z,24.53
2023-05-21T08:27:58.907Z,24.60
2023-05-21T08:30:25.685Z,24.67
2023-05-21T08:32:52.848Z,24.77
2023-05-21T08:35:19.602Z,24.81
2023-05-21T08:37:46.688Z,24.91
2023-05-21T08:40:13.688Z,24.97
2023-05-21T08:42:47.902Z,25.05
2023-05-21T08:45:15.507Z,25.13
2023-05-21T08:47:43.999Z,25.21
2023-05-21T08:50:12.191Z,25.28
2023-05-21T08:52:39.420Z,25.34
2023-05-21T08:55:07.377Z,25.46
2023-05-21T08:57:34.934Z,25.52
2023-05-21T09:00:02.124Z,25.62
2023-05-21T09:02:30.581Z,25.73
2023-05-21T09:04:58.813Z,25.78
2023-05-21T09:07:30.524Z,25.86
2023-05-21T09:09:58.997Z,25.93
2023-05-21T09:12:26.120Z,26.07
2023-05-21T09:14:52.948Z,26.14
2023-05-21T09:17:20.472Z,26.23
2023-05-21T09:20:16.523Z,26.32
2023-05-21T09:22:48.210Z,26.38
2023-05-21T09:25:24.133Z,26.47
2023-05-21T09:27:51.251Z,26.54
2023-05-21T09:30:20.873Z,26.60
2023-05-21T09:32:56.341Z,26.64
2023-05-21T09:35:23.253Z,26.70
2023-05-21T09:37:52.417Z,26.78
2023-05-21T09:40:20.431Z,26.88
2023-05-21T09:42:48.823Z,26.94
2023-05-21T09:45:25.308Z,27.03
2023-05-21T09:47:53.738Z,27.11
2023-05-21T09:50:22.498Z,27.21
2023-05-21T09:52:55.745Z,27.31
2023-05-21T09:55:22.971Z,27.36
2023-05-21T09:57:51.767Z,27.44
2023-05-21T10:00:27.443Z,27.55
2023-05-21T10:02:55.644Z,27.59
2023-05-21T10:05:26.168Z,27.73
2023-05-21T10:07:54.436Z,27.81
2023-05-21T10:10:21.888Z,27.87
2023-05-21T10:12:52.390Z,27.92
2023-05-21T10:15:21.008Z,28.00
2023-05-21T10:17:48.642Z,28.08
2023-05-21T10:20:16.030Z,28.14
2023-05-21T10:22:43.142Z,28.18
2023-05-21T10:25:10.126Z,28.23
2023-05-21T10:27:37.255Z,28.29
2023-05-21T10:30:05.794Z,28.38
2023-05-21T10:32:33.396Z,28.44
2023-05-21T10:35:01.959Z,28.48
2023-05-21T10:37:29.395Z,28.55
2023-05-21T10:39:56.316Z,28.62
2023-05-21T10:42:32.628Z,28.72
2023-05-21T10:45:12.921Z,28.76
2023-05-21T10:48:02.914Z,28.81
2023-05-21T10:50:54.384Z,28.86
2023-05-21T10:53:33.563Z,28.98
2023-05-21T10:56:28.692Z,29.04
2023-05-21T10:59:10.128Z,29.09
2023-05-21T11:01:37.947Z,29.16
2023-05-21T11:04:06.209Z,29.20
2023-05-21T11:06:33.022Z,29.25
2023-05-21T11:09:12.577Z,29.25
2023-05-21T11:11:42.891Z,29.27
2023-05-21T11:14:39.016Z,29.33
2023-05-21T11:17:40.168Z,29.37
2023-05-21T11:20:11.990Z,29.42
2023-05-21T11:22:38.805Z,29.44
2023-05-21T11:25:06.641Z,29.49
2023-05-21T11:27:40.536Z,29.51
2023-05-21T11:30:16.074Z,29.59
2023-05-21T11:33:10.920Z,29.64
2023-05-21T11:35:50.294Z,29.66
2023-05-21T11:38:17.766Z,29.74
2023-05-21T11:40:55.665Z,29.78
2023-05-21T11:43:22.593Z,29.81
2023-05-21T11:45:49.683Z,29.87
2023-05-21T11:48:17.714Z,29.92
2023-05-21T11:50:44.828Z,30.02
2023-05-21T11:53:12.375Z,30.03
2023-05-21T11:55:43.695Z,30.06
2023-05-21T11:58:13.587Z,30.09
2023-05-21T12:00:40.717Z,30.12
2023-05-21T12:03:08.469Z,30.14
2023-05-21T12:05:48.355Z,30.21
2023-05-21T12:08:25.776Z,30.28
2023-05-21T12:10:59.356Z,30.32
2023-05-21T12:13:26.504Z,30.36
2023-05-21T12:15:56.772Z,30.36
2023-05-21T12:18:23.545Z,30.37
2023-05-21T12:20:52.088Z,30.43
2023-05-21T12:23:25.566Z,30.46
2023-05-21T12:25:53.871Z,30.48
2023-05-21T12:28:21.412Z,30.51
2023-05-21T12:30:48.486Z,30.52
2023-05-21T12:33:17.968Z,30.51
2023-05-21T12:35:50.712Z,30.49
2023-05-21T12:38:17.495Z,30.51
2023-05-21T12:40:45.888Z,30.52
2023-05-21T12:43:12.958Z,30.57
2023-05-21T12:45:40.018Z,30.61
2023-05-21T12:48:07.053Z,30.62
2023-05-21T12:50:35.863Z,30.60
2023-05-21T12:53:03.074Z,30.66
2023-05-21T12:55:30.287Z,30.67
2023-05-21T12:58:02.622Z,30.67
2023-05-21T13:00:29.748Z,30.60
2023-05-21T13:02:59.709Z,30.66
2023-05-21T13:05:26.819Z,30.61
2023-05-21T13:07:53.571Z,30.69
2023-05-21T13:10:20.896Z,30.68
2023-05-21T13:12:47.672Z,30.74
2023-05-21T13:15:15.317Z,30.75
2023-05-21T13:17:42.160Z,30.80
2023-05-21T13:20:16.813Z,30.79
2023-05-21T13:22:50.714Z,30.75
2023-05-21T13:25:20.379Z,30.75
2023-05-21T13:27:47.777Z,30.78
2023-05-21T13:30:15.037Z,30.78
2023-05-21T13:32:42.304Z,30.78
2023-05-21T13:35:10.181Z,30.70
2023-05-21T13:37:37.085Z,30.81
2023-05-21T13:40:05.828Z,30.79
2023-05-21T13:42:33.484Z,30.80
2023-05-21T13:45:00.725Z,30.81
2023-05-21T13:47:27.523Z,30.81
2023-05-21T13:49:54.592Z,30.83
2023-05-21T13:52:21.766Z,30.84
2023-05-21T13:54:48.837Z,30.84
2023-05-21T13:57:15.824Z,30.83
2023-05-21T13:59:42.908Z,30.83
2023-05-21T14:02:10.221Z,30.82
2023-05-21T14:04:39.218Z,30.81
2023-05-21T14:07:06.583Z,30.81
2023-05-21T14:09:33.975Z,30.84
2023-05-21T14:12:01.569Z,30.81
2023-05-21T14:14:28.689Z,30.83
2023-05-21T14:16:55.769Z,30.82
2023-05-21T14:19:22.973Z,30.83
2023-05-21T14:21:51.952Z,30.82
2023-05-21T14:24:19.458Z,30.84
2023-05-21T14:26:46.274Z,30.85
2023-05-21T14:29:13.366Z,30.84
2023-05-21T14:31:40.174Z,30.83
2023-05-21T14:34:08.804Z,30.83
2023-05-21T14:36:36.507Z,30.85
2023-05-21T14:39:03.901Z,30.84
2023-05-21T14:41:30.865Z,30.86
2023-05-21T14:43:57.955Z,30.86
2023-05-21T14:46:24.959Z,30.85
2023-05-21T14:48:52.834Z,30.84
2023-05-21T14:51:19.679Z,30.81
2023-05-21T14:53:46.702Z,30.77
2023-05-21T14:56:13.493Z,30.81
2023-05-21T14:58:40.872Z,30.79
2023-05-21T15:01:07.908Z,30.80
2023-05-21T15:03:35.105Z,30.80
2023-05-21T15:06:01.957Z,30.78
2023-05-21T15:08:29.034Z,30.71
2023-05-21T15:10:56.767Z,30.67
2023-05-21T15:13:23.979Z,30.64
2023-05-21T15:15:51.117Z,30.65
2023-05-21T15:18:18.355Z,30.63
2023-05-21T15:20:45.140Z,30.60
2023-05-21T15:23:17.359Z,30.54
2023-05-21T15:25:45.458Z,30.57
2023-05-21T15:28:12.726Z,30.47
2023-05-21T15:30:39.988Z,30.45
2023-05-21T15:33:07.121Z,30.51
2023-05-21T15:35:35.406Z,30.49
2023-05-21T15:38:02.912Z,30.46
2023-05-21T15:40:29.680Z,30.35
2023-05-21T15:42:57.050Z,30.32
2023-05-21T15:45:24.625Z,30.25
2023-05-21T15:47:51.670Z,30.27
2023-05-21T15:50:18.493Z,30.16
2023-05-21T15:52:45.571Z,30.11
2023-05-21T15:55:13.960Z,30.07
2023-05-21T15:57:41.084Z,30.03
2023-05-21T16:00:09.803Z,29.99
2023-05-21T16:02:37.080Z,30.13
2023-05-21T16:05:04.180Z,30.13
2023-05-21T16:07:31.262Z,30.02
2023-05-21T16:09:58.071Z,30.03
2023-05-21T16:12:26.015Z,30.01
2023-05-21T16:14:52.923Z,30.02
2023-05-21T16:17:20.037Z,29.96
2023-05-21T16:19:47.592Z,29.95
2023-05-21T16:22:14.989Z,29.89
2023-05-21T16:24:41.774Z,29.84
2023-05-21T16:27:08.872Z,29.80
2023-05-21T16:29:35.644Z,29.71
2023-05-21T16:32:02.912Z,29.72
2023-05-21T16:34:30.279Z,29.75
2023-05-21T16:36:58.648Z,29.63
2023-05-21T16:39:25.498Z,29.49
2023-05-21T16:41:54.002Z,29.50
2023-05-21T16:44:20.865Z,29.47
2023-05-21T16:46:47.924Z,29.38
2023-05-21T16:49:14.661Z,29.40
2023-05-21T16:51:41.706Z,29.29
2023-05-21T16:54:08.545Z,29.29
2023-05-21T16:56:35.655Z,29.27
2023-05-21T16:59:02.422Z,29.20
2023-05-21T17:01:29.493Z,29.14
2023-05-21T17:03:56.442Z,28.99
2023-05-21T17:06:23.932Z,29.01
2023-05-21T17:08:50.777Z,29.05
2023-05-21T17:11:17.861Z,29.01
2023-05-21T17:13:48.177Z,28.98
2023-05-21T17:16:15.458Z,28.89
2023-05-21T17:18:42.241Z,28.85
2023-05-21T17:21:09.668Z,28.82
2023-05-21T17:23:36.548Z,28.82
2023-05-21T17:26:03.611Z,28.84
2023-05-21T17:28:30.400Z,28.68
2023-05-21T17:30:57.465Z,28.63
2023-05-21T17:33:25.174Z,28.57
2023-05-21T17:35:52.348Z,28.49
2023-05-21T17:38:19.160Z,28.53
2023-05-21T17:40:46.302Z,28.48
2023-05-21T17:43:13.121Z,28.43
2023-05-21T17:45:40.381Z,28.31
2023-05-21T17:48:07.427Z,28.38
2023-05-21T17:50:34.694Z,28.31
2023-05-21T17:53:01.508Z,28.30
2023-05-21T17:55:28.722Z,28.24
2023-05-21T17:57:55.582Z,28.25
2023-05-21T18:00:22.644Z,28.22
2023-05-21T18:02:49.474Z,28.21
2023-05-21T18:05:16.663Z,28.16
2023-05-21T18:07:43.444Z,28.16
2023-05-21T18:10:10.905Z,28.08
2023-05-21T18:12:37.684Z,28.01
2023-05-21T18:15:05.314Z,27.94
2023-05-21T18:17:32.124Z,27.86
2023-05-21T18:19:59.242Z,27.84
2023-05-21T18:22:25.973Z,27.79
2023-05-21T18:24:53.085Z,27.72
2023-05-21T18:27:19.937Z,27.65
2023-05-21T18:29:49.008Z,27.62
2023-05-21T18:32:16.927Z,27.61
2023-05-21T18:34:44.364Z,27.54
2023-05-21T18:37:11.225Z,27.50
2023-05-21T18:39:38.300Z,27.48
2023-05-21T18:42:12.702Z,27.39
2023-05-21T18:44:40.324Z,27.28
2023-05-21T18:47:08.240Z,27.21
2023-05-21T18:49:36.220Z,27.16
2023-05-21T18:52:04.427Z,27.12
2023-05-21T18:54:31.850Z,27.05
2023-05-21T18:57:00.465Z,26.99
2023-05-21T18:59:28.390Z,26.96
2023-05-21T19:01:55.295Z,26.93
2023-05-21T19:04:22.536Z,26.90
2023-05-21T19:06:49.356Z,26.80
2023-05-21T19:09:16.703Z,26.74
2023-05-21T19:11:43.506Z,26.69
2023-05-21T19:14:10.636Z,26.66
2023-05-21T19:16:37.528Z,26.61
2023-05-21T19:19:04.795Z,26.58
2023-05-21T19:21:32.318Z,26.53
2023-05-21T19:23:59.421Z,26.46
2023-05-21T19:26:26.198Z,26.45
2023-05-21T19:28:54.427Z,26.35
2023-05-21T19:31:25.520Z,26.29
2023-05-21T19:33:52.767Z,26.28
2023-05-21T19:36:20.789Z,26.20
2023-05-21T19:38:51.046Z,26.21
2023-05-21T19:41:18.270Z,26.14
2023-05-21T19:43:45.620Z,26.11
2023-05-21T19:46:12.659Z,26.10
2023-05-21T19:48:39.959Z,25.96
2023-05-21T19:51:06.754Z,25.93
2023-05-21T19:53:34.947Z,25.90
2023-05-21T19:56:01.939Z,25.81
2023-05-21T19:58:30.399Z,25.83
2023-05-21T20:00:59.339Z,25.79
2023-05-21T20:03:26.973Z,25.66
2023-05-21T20:05:54.277Z,25.63
2023-05-21T20:08:21.673Z,25.60
2023-05-21T20:10:51.393Z,25.53
2023-05-21T20:13:19.665Z,25.47
2023-05-21T20:15:47.879Z,25.38
2023-05-21T20:18:15.579Z,25.34
2023-05-21T20:20:43.001Z,25.22
2023-05-21T20:23:10.180Z,25.16
2023-05-21T20:25:37.032Z,25.16
2023-05-21T20:28:05.406Z,25.14
2023-05-21T20:30:33.159Z,25.05
2023-05-21T20:33:01.852Z,25.08
2023-05-21T20:35:28.849Z,24.97
2023-05-21T20:37:56.013Z,24.98
2023-05-21T20:40:22.821Z,24.95
2023-05-21T20:42:52.021Z,24.89
2023-05-21T20:45:18.932Z,24.88
2023-05-21T20:47:47.848Z,24.74
2023-05-21T20:50:14.744Z,24.74
2023-05-21T20:52:44.879Z,24.71
2023-05-21T20:55:14.751Z,24.56
2023-05-21T20:57:42.305Z,24.51
2023-05-21T21:00:11.659Z,24.53
2023-05-21T21:02:39.085Z,24.50
2023-05-21T21:05:06.468Z,24.39
2023-05-21T21:07:34.313Z,24.39
2023-05-21T21:10:01.596Z,24.31
2023-05-21T21:12:28.806Z,24.29
2023-05-21T21:14:55.687Z,24.22
2023-05-21T21:17:23.184Z,24.20
2023-05-21T21:19:50.157Z,24.16
2023-05-21T21:22:18.355Z,24.11
2023-05-21T21:24:45.644Z,24.01
2023-05-21T21:27:12.808Z,24.02
2023-05-21T21:29:39.708Z,23.89
2023-05-21T21:32:07.302Z,23.95
2023-05-21T21:34:34.074Z,23.94
2023-05-21T21:37:01.159Z,23.84
2023-05-21T21:39:27.966Z,23.86
2023-05-21T21:41:55.060Z,23.82
2023-05-21T21:44:21.939Z,23.82
2023-05-21T21:46:49.003Z,23.71
2023-05-21T21:49:17.403Z,23.64
2023-05-21T21:51:44.953Z,23.67
2023-05-21T21:54:11.945Z,23.58
2023-05-21T21:56:39.071Z,23.56
2023-05-21T21:59:05.968Z,23.56
2023-05-21T22:01:33.205Z,23.47
2023-05-21T22:03:59.966Z,23.41
2023-05-21T22:06:27.714Z,23.33
2023-05-21T22:08:54.675Z,23.37
2023-05-21T22:11:22.014Z,23.37
2023-05-21T22:13:49.028Z,23.32
2023-05-21T22:16:16.299Z,23.24
2023-05-21T22:18:43.151Z,23.24
2023-05-21T22:21:10.834Z,23.21
2023-05-21T22:23:38.448Z,23.14
2023-05-21T22:26:06.566Z,23.13
2023-05-21T22:28:33.462Z,23.02
2023-05-21T22:31:00.915Z,23.06
2023-05-21T22:33:29.206Z,23.01
2023-05-21T22:35:56.949Z,23.05
2023-05-21T22:38:24.770Z,23.01
2023-05-21T22:40:51.853Z,22.97
2023-05-21T22:43:18.643Z,22.92
2023-05-21T22:45:45.782Z,22.91
2023-05-21T22:48:12.572Z,22.85
2023-05-21T22:50:39.874Z,22.83
2023-05-21T22:53:06.956Z,22.83
2023-05-21T22:55:34.013Z,22.76
2023-05-21T22:58:00.784Z,22.67
2023-05-21T23:00:28.139Z,22.68
2023-05-21T23:02:55.175Z,22.57
2023-05-21T23:05:22.520Z,22.63
2023-05-21T23:07:49.594Z,22.58
2023-05-21T23:10:16.774Z,22.54
2023-05-21T23:12:43.560Z,22.53
2023-05-21T23:15:11.065Z,22.53
2023-05-21T23:17:38.361Z,22.47
2023-05-21T23:20:09.297Z,22.42
2023-05-21T23:22:36.233Z,22.38
2023-05-21T23:25:03.930Z,22.38
2023-05-21T23:27:30.769Z,22.32
2023-05-21T23:29:57.808Z,22.31
2023-05-21T23:32:24.541Z,22.27
2023-05-21T23:34:51.619Z,22.23
2023-05-21T23:37:18.890Z,22.15
2023-05-21T23:39:49.567Z,22.14
2023-05-21T23:42:17.122Z,22.14
2023-05-21T23:44:44.309Z,22.09
2023-05-21T23:47:11.067Z,22.02
2023-05-21T23:49:38.768Z,22.02
2023-05-21T23:52:06.089Z,21.99
2023-05-21T23:54:33.215Z,21.89
2023-05-21T23:57:00.016Z,21.85
2023-05-21T23:59:27.061Z,21.86
